Time;durP1;ratioP1;P1;durP2;ratioP2;P2;SDS_P1;SDS_P2;PMS_P1;PMS_P2;Temp;Humidity;BMP_temperature;BMP_pressure;BME280_temperature;BME280_humidity;BME280_pressure;Samples;Min_cycle;Max_cycle;Signal;HPM_P1;HPM_P2
2022/01/23 00:00:02;;;;;;;48.72;18.83;;;;;;;;;;5000871;28;20061;-70
2022/01/23 00:02:28;;;;;;;49.80;18.33;;;;;;;;;;5002292;28;20034;-70
2022/01/23 00:04:54;;;;;;;50.00;19.38;;;;;;;;;;5000395;28;20025;-70
2022/01/23 00:07:20;;;;;;;51.42;18.02;;;;;;;;;;5001102;28;20164;-68
2022/01/23 00:09:45;;;;;;;52.75;19.65;;;;;;;;;;5001236;28;20037;-70
2022/01/23 00:12:16;;;;;;;50.50;19.30;;;;;;;;;;4989222;28;20042;-70
2022/01/23 00:17:32;;;;;;;52.03;19.27;;;;;;;;;;4982463;28;20081;-70
2022/01/23 00:19:58;;;;;;;54.92;18.30;;;;;;;;;;4985846;28;20031;-70
2022/01/23 00:22:34;;;;;;;50.80;18.23;;;;;;;;;;4986596;28;20088;-70
2022/01/23 00:32:55;;;;;;;53.33;19.10;;;;;;;;;;4982722;28;20516;-70
2022/01/23 00:35:22;;;;;;;61.70;19.63;;;;;;;;;;4988187;28;20528;-70
2022/01/23 00:37:47;;;;;;;53.25;19.55;;;;;;;;;;4988668;28;20032;-69
2022/01/23 00:40:14;;;;;;;49.88;19.08;;;;;;;;;;4984237;28;20135;-70
2022/01/23 00:42:39;;;;;;;51.05;19.77;;;;;;;;;;4983485;28;20521;-70
2022/01/23 00:47:46;;;;;;;53.95;20.25;;;;;;;;;;4981531;28;20078;-70
2022/01/23 00:50:11;;;;;;;48.42;19.13;;;;;;;;;;4985277;28;20080;-69
2022/01/23 00:52:37;;;;;;;50.65;19.95;;;;;;;;;;4982108;28;20030;-70
2022/01/23 00:55:04;;;;;;;53.72;20.33;;;;;;;;;;4981429;28;20054;-70
2022/01/23 00:57:31;;;;;;;49.15;18.75;;;;;;;;;;4986023;28;20605;-70
2022/01/23 00:59:56;;;;;;;46.38;18.73;;;;;;;;;;4988740;28;20042;-70
2022/01/23 01:02:21;;;;;;;46.78;19.45;;;;;;;;;;4988689;28;20056;-70
2022/01/23 01:04:46;;;;;;;54.78;20.67;;;;;;;;;;4987185;28;20049;-70
2022/01/23 01:07:12;;;;;;;54.15;20.08;;;;;;;;;;4982956;28;20053;-70
2022/01/23 01:09:37;;;;;;;53.17;20.55;;;;;;;;;;4980336;28;20552;-70
2022/01/23 01:12:05;;;;;;;55.42;19.45;;;;;;;;;;4986594;28;20066;-70
2022/01/23 01:17:09;;;;;;;52.95;20.10;;;;;;;;;;4984210;28;20038;-70
2022/01/23 01:33:33;;;;;;;53.03;19.65;;;;;;;;;;5008719;28;20500;-70
2022/01/23 01:36:15;;;;;;;47.25;19.02;;;;;;;;;;5000983;28;20420;-70
2022/01/23 01:38:41;;;;;;;51.50;19.13;;;;;;;;;;5003543;28;20099;-69
2022/01/23 01:41:06;;;;;;;51.88;20.63;;;;;;;;;;5002133;28;20054;-70
2022/01/23 01:43:31;;;;;;;51.35;19.52;;;;;;;;;;5001188;28;20076;-70
2022/01/23 01:45:57;;;;;;;49.22;19.15;;;;;;;;;;5002307;28;20902;-70
2022/01/23 01:48:24;;;;;;;52.03;20.45;;;;;;;;;;5000866;28;20100;-70
2022/01/23 01:50:52;;;;;;;46.63;19.70;;;;;;;;;;4997563;28;20463;-70
2022/01/23 01:53:17;;;;;;;48.83;18.60;;;;;;;;;;5007787;28;20411;-70
2022/01/23 01:55:48;;;;;;;51.92;20.50;;;;;;;;;;4991426;28;20592;-70
2022/01/23 02:01:00;;;;;;;49.42;19.63;;;;;;;;;;5004762;28;20038;-70
2022/01/23 02:08:37;;;;;;;;;;;;;;;;;;5006111;28;20045;-70
2022/01/23 02:11:17;;;;;;;48.90;18.92;;;;;;;;;;5008056;28;19917;-70
2022/01/23 02:13:57;;;;;;;55.10;21.80;;;;;;;;;;5005294;28;20495;-70
2022/01/23 02:56:50;;;;;;;55.60;20.67;;;;;;;;;;4994288;28;20084;-70
2022/01/23 02:59:25;;;;;;;53.38;19.90;;;;;;;;;;5001864;28;20502;-70
2022/01/23 03:04:35;;;;;;;58.65;21.80;;;;;;;;;;4983406;28;20109;-70
2022/01/23 03:10:17;;;;;;;50.17;19.95;;;;;;;;;;4926801;29;20060;-70
2022/01/23 03:26:34;;;;;;;53.33;21.08;;;;;;;;;;5002181;28;20443;-70
2022/01/23 03:31:40;;;;;;;56.03;20.10;;;;;;;;;;4987468;28;20038;-69
2022/01/23 03:34:06;;;;;;;55.25;19.73;;;;;;;;;;4983288;28;20491;-70
2022/01/23 03:36:32;;;;;;;52.65;19.50;;;;;;;;;;4965043;28;20416;-70
2022/01/23 03:38:57;;;;;;;52.83;21.52;;;;;;;;;;4996032;28;20813;-70
2022/01/23 03:41:23;;;;;;;56.33;21.63;;;;;;;;;;5007174;28;20041;-70
2022/01/23 03:43:48;;;;;;;54.63;21.15;;;;;;;;;;4987679;28;20060;-70
2022/01/23 03:51:35;;;;;;;53.50;20.83;;;;;;;;;;4981408;28;20041;-70
2022/01/23 03:54:01;;;;;;;52.22;19.70;;;;;;;;;;4983554;28;20069;-69
2022/01/23 03:56:30;;;;;;;57.70;21.25;;;;;;;;;;4983039;28;20058;-70
2022/01/23 03:58:56;;;;;;;56.63;20.48;;;;;;;;;;4980201;28;20117;-69
2022/01/23 04:01:21;;;;;;;54.70;21.13;;;;;;;;;;4986346;28;20121;-70
2022/01/23 04:03:47;;;;;;;54.00;20.25;;;;;;;;;;4987211;28;20046;-70
2022/01/23 04:06:12;;;;;;;61.63;22.08;;;;;;;;;;4985731;28;20047;-70
2022/01/23 04:08:37;;;;;;;55.95;20.35;;;;;;;;;;4986114;28;20635;-70
2022/01/23 04:11:04;;;;;;;59.25;21.30;;;;;;;;;;4986108;28;20046;-70
2022/01/23 04:13:42;;;;;;;55.92;22.05;;;;;;;;;;4986907;28;20114;-70
2022/01/23 04:33:12;;;;;;;;;;;;;;;;;;5007020;28;19971;-70
2022/01/23 04:46:53;;;;;;;50.13;19.75;;;;;;;;;;4987331;28;20045;-70
2022/01/23 04:59:52;;;;;;;58.92;20.38;;;;;;;;;;4989705;28;20041;-70
2022/01/23 05:04:44;;;;;;;52.03;19.63;;;;;;;;;;4984997;28;20030;-70
2022/01/23 05:07:11;;;;;;;49.80;20.58;;;;;;;;;;4987479;28;20050;-70
2022/01/23 05:09:37;;;;;;;53.40;19.98;;;;;;;;;;4999302;28;20624;-70
2022/01/23 05:12:05;;;;;;;60.97;21.48;;;;;;;;;;4991814;28;20046;-70
2022/01/23 05:14:43;;;;;;;57.78;21.65;;;;;;;;;;4982031;28;20241;-70
2022/01/23 05:17:12;;;;;;;58.38;20.70;;;;;;;;;;4986248;28;20117;-70
2022/01/23 05:19:39;;;;;;;54.80;19.55;;;;;;;;;;4989418;28;20033;-70
2022/01/23 05:24:47;;;;;;;57.25;21.35;;;;;;;;;;4987477;28;20038;-70
2022/01/23 05:27:12;;;;;;;58.70;19.98;;;;;;;;;;4985068;28;20039;-70
2022/01/23 05:29:38;;;;;;;56.95;20.35;;;;;;;;;;4985549;28;20121;-71
2022/01/23 05:32:04;;;;;;;56.92;21.35;;;;;;;;;;4989130;28;21349;-70
2022/01/23 05:34:30;;;;;;;56.72;20.60;;;;;;;;;;5004559;28;20017;-71
2022/01/23 05:36:56;;;;;;;55.78;21.15;;;;;;;;;;5008776;28;20673;-71
2022/01/23 05:39:24;;;;;;;57.15;20.55;;;;;;;;;;5009356;28;20033;-70
2022/01/23 05:41:54;;;;;;;52.80;20.60;;;;;;;;;;5006351;28;20034;-70
2022/01/23 05:44:20;;;;;;;49.75;18.95;;;;;;;;;;5004918;28;20574;-70
2022/01/23 05:46:45;;;;;;;60.83;21.27;;;;;;;;;;5003130;28;21149;-70
2022/01/23 05:49:11;;;;;;;57.72;21.15;;;;;;;;;;5006201;28;20030;-70
2022/01/23 05:51:36;;;;;;;56.78;20.35;;;;;;;;;;5003662;28;20037;-70
2022/01/23 05:54:02;;;;;;;54.55;21.50;;;;;;;;;;5003804;28;20465;-70
2022/01/23 05:56:27;;;;;;;55.03;19.73;;;;;;;;;;5004256;28;20575;-70
2022/01/23 05:58:53;;;;;;;61.40;21.60;;;;;;;;;;5008233;28;20017;-70
2022/01/23 06:01:19;;;;;;;56.38;19.52;;;;;;;;;;5008768;28;20084;-71
2022/01/23 06:03:44;;;;;;;55.30;20.98;;;;;;;;;;5005841;28;20038;-71
2022/01/23 06:06:09;;;;;;;61.28;21.45;;;;;;;;;;5004106;28;20144;-70
2022/01/23 06:08:35;;;;;;;52.78;19.58;;;;;;;;;;4987445;28;20038;-70
2022/01/23 06:11:00;;;;;;;58.67;20.20;;;;;;;;;;4986385;28;20564;-70
2022/01/23 06:13:27;;;;;;;54.80;19.83;;;;;;;;;;5007371;28;20033;-71
2022/01/23 06:15:53;;;;;;;53.85;20.73;;;;;;;;;;5008032;28;20586;-71
2022/01/23 06:18:19;;;;;;;55.10;20.58;;;;;;;;;;5008330;28;20030;-71
2022/01/23 06:20:45;;;;;;;53.47;19.58;;;;;;;;;;5006367;28;20041;-70
2022/01/23 06:23:11;;;;;;;54.42;19.13;;;;;;;;;;5002190;28;20062;-70
2022/01/23 06:25:37;;;;;;;58.20;20.17;;;;;;;;;;5005018;28;20577;-70
2022/01/23 06:28:05;;;;;;;54.40;19.05;;;;;;;;;;5002963;28;20056;-70
2022/01/23 06:30:31;;;;;;;53.53;19.15;;;;;;;;;;5000343;28;20037;-70
2022/01/23 06:32:57;;;;;;;50.88;19.75;;;;;;;;;;5003699;28;20038;-71
2022/01/23 06:35:22;;;;;;;51.30;19.92;;;;;;;;;;5002610;28;20030;-70
2022/01/23 06:37:48;;;;;;;58.10;21.13;;;;;;;;;;5002683;28;20036;-70
2022/01/23 06:40:13;;;;;;;51.05;19.67;;;;;;;;;;5004130;28;20666;-70
2022/01/23 06:42:39;;;;;;;54.83;19.75;;;;;;;;;;5006515;28;20045;-70
2022/01/23 06:45:05;;;;;;;54.65;19.60;;;;;;;;;;5007993;28;20040;-71
2022/01/23 06:47:30;;;;;;;51.13;19.75;;;;;;;;;;5004537;28;20121;-70
2022/01/23 06:49:55;;;;;;;56.13;20.08;;;;;;;;;;5003060;28;20037;-70
2022/01/23 06:52:21;;;;;;;50.22;19.15;;;;;;;;;;5001923;28;20026;-70
2022/01/23 06:54:46;;;;;;;54.45;19.05;;;;;;;;;;5003749;28;20964;-70
2022/01/23 06:57:11;;;;;;;55.85;21.23;;;;;;;;;;5002759;28;20711;-70
2022/01/23 06:59:37;;;;;;;49.88;18.77;;;;;;;;;;5002564;28;20049;-70
2022/01/23 07:02:03;;;;;;;56.10;20.90;;;;;;;;;;5003703;28;20048;-70
2022/01/23 07:04:29;;;;;;;57.42;20.52;;;;;;;;;;5003493;28;20123;-70
2022/01/23 07:06:54;;;;;;;60.13;21.58;;;;;;;;;;5002299;28;20057;-71
2022/01/23 07:09:19;;;;;;;51.97;20.08;;;;;;;;;;5004134;28;20034;-71
2022/01/23 07:11:45;;;;;;;57.70;21.00;;;;;;;;;;5004599;28;20088;-70
2022/01/23 07:14:10;;;;;;;55.65;20.98;;;;;;;;;;5007745;28;20040;-71
2022/01/23 07:16:36;;;;;;;53.65;21.05;;;;;;;;;;5006492;28;20048;-70
2022/01/23 07:19:01;;;;;;;62.00;22.00;;;;;;;;;;5002215;28;20044;-70
2022/01/23 07:21:26;;;;;;;58.83;21.08;;;;;;;;;;5004695;28;20030;-71
2022/01/23 07:23:52;;;;;;;55.97;21.98;;;;;;;;;;5007050;28;20041;-70
2022/01/23 07:26:18;;;;;;;52.45;20.58;;;;;;;;;;5002742;28;20423;-70
2022/01/23 07:28:45;;;;;;;65.03;20.60;;;;;;;;;;4986292;28;20072;-70
2022/01/23 07:31:11;;;;;;;61.53;21.80;;;;;;;;;;5002879;28;20029;-70
2022/01/23 07:33:37;;;;;;;62.03;21.33;;;;;;;;;;5001722;28;20594;-70
2022/01/23 07:36:04;;;;;;;58.00;21.80;;;;;;;;;;5004774;28;20088;-71
2022/01/23 07:38:30;;;;;;;62.20;21.30;;;;;;;;;;5006928;28;20030;-71
2022/01/23 07:40:56;;;;;;;60.95;21.58;;;;;;;;;;5007209;28;20033;-71
2022/01/23 07:43:21;;;;;;;63.03;23.70;;;;;;;;;;5008586;28;20026;-70
2022/01/23 07:45:46;;;;;;;57.20;21.42;;;;;;;;;;5005129;28;20037;-71
2022/01/23 07:48:12;;;;;;;62.17;22.88;;;;;;;;;;5005230;28;20049;-71
2022/01/23 07:50:37;;;;;;;60.58;21.40;;;;;;;;;;5005913;28;20042;-70
2022/01/23 07:53:04;;;;;;;59.42;21.20;;;;;;;;;;5003325;28;20504;-71
2022/01/23 07:55:30;;;;;;;72.05;26.85;;;;;;;;;;5005707;28;20116;-71
2022/01/23 07:58:02;;;;;;;64.55;23.48;;;;;;;;;;5005136;28;20129;-71
2022/01/23 08:00:28;;;;;;;68.28;24.65;;;;;;;;;;5006345;28;20077;-71
2022/01/23 08:02:53;;;;;;;63.75;22.20;;;;;;;;;;5006998;28;20053;-71
2022/01/23 08:05:19;;;;;;;60.80;22.95;;;;;;;;;;4993515;28;20044;-72
2022/01/23 08:07:44;;;;;;;69.38;24.85;;;;;;;;;;5007146;28;21191;-73
2022/01/23 08:10:10;;;;;;;65.40;23.02;;;;;;;;;;5004613;28;20030;-71
2022/01/23 08:12:35;;;;;;;61.35;22.60;;;;;;;;;;5005272;28;20140;-71
2022/01/23 08:15:03;;;;;;;62.05;23.63;;;;;;;;;;5004594;28;20048;-71
2022/01/23 08:17:28;;;;;;;73.88;25.40;;;;;;;;;;5004518;28;20092;-73
2022/01/23 08:19:56;;;;;;;69.20;23.63;;;;;;;;;;5004644;28;20047;-73
2022/01/23 08:22:24;;;;;;;59.70;22.02;;;;;;;;;;5009357;28;20029;-71
2022/01/23 08:24:51;;;;;;;58.58;21.55;;;;;;;;;;5002771;28;20034;-72
2022/01/23 08:27:16;;;;;;;58.83;23.08;;;;;;;;;;5003664;28;20046;-71
2022/01/23 08:29:42;;;;;;;61.33;22.52;;;;;;;;;;5003188;28;20096;-71
2022/01/23 08:32:09;;;;;;;65.72;21.95;;;;;;;;;;4999837;28;20041;-72
2022/01/23 08:34:35;;;;;;;64.25;24.95;;;;;;;;;;5006710;28;20032;-72
2022/01/23 08:37:05;;;;;;;78.20;27.88;;;;;;;;;;5003414;28;20408;-73
2022/01/23 08:39:33;;;;;;;73.93;28.45;;;;;;;;;;5002270;28;20393;-72
2022/01/23 08:41:58;;;;;;;72.97;29.02;;;;;;;;;;5004083;28;20068;-72
2022/01/23 08:44:26;;;;;;;73.07;25.23;;;;;;;;;;4988766;28;20034;-72
2022/01/23 08:46:53;;;;;;;69.72;25.35;;;;;;;;;;5002780;28;20034;-72
2022/01/23 08:49:20;;;;;;;77.88;31.60;;;;;;;;;;5006144;28;20021;-72
2022/01/23 08:51:47;;;;;;;81.13;31.08;;;;;;;;;;5002301;28;20029;-73
2022/01/23 08:54:13;;;;;;;73.85;25.25;;;;;;;;;;5003976;28;20121;-72
2022/01/23 08:56:38;;;;;;;60.92;22.20;;;;;;;;;;5002800;28;20531;-72
2022/01/23 08:59:04;;;;;;;62.58;23.08;;;;;;;;;;5002895;28;20038;-72
2022/01/23 09:01:29;;;;;;;64.25;23.10;;;;;;;;;;5004184;28;20057;-72
2022/01/23 09:03:55;;;;;;;65.63;23.38;;;;;;;;;;5001274;28;20045;-72
2022/01/23 09:06:21;;;;;;;61.67;21.77;;;;;;;;;;5012219;28;20050;-73
2022/01/23 09:08:46;;;;;;;59.90;22.25;;;;;;;;;;5005968;28;20084;-73
2022/01/23 09:14:10;;;;;;;65.07;24.30;;;;;;;;;;5000635;28;20063;-71
2022/01/23 09:16:43;;;;;;;63.28;22.77;;;;;;;;;;5003077;28;20101;-70
2022/01/23 09:19:10;;;;;;;60.53;21.42;;;;;;;;;;5004367;28;20459;-72
2022/01/23 09:21:36;;;;;;;64.18;23.08;;;;;;;;;;5007175;28;20762;-70
2022/01/23 09:24:02;;;;;;;63.08;22.15;;;;;;;;;;4999192;28;20042;-75
2022/01/23 09:26:27;;;;;;;64.63;22.85;;;;;;;;;;5003369;28;20042;-74
2022/01/23 09:28:56;;;;;;;58.30;21.90;;;;;;;;;;4999604;28;20025;-75
2022/01/23 09:32:04;;;;;;;68.00;25.17;;;;;;;;;;5004036;28;20077;-74
2022/01/23 09:34:10;;;;;;;57.83;22.70;;;;;;;;;;4978777;28;20042;-74
2022/01/23 09:36:36;;;;;;;65.50;24.40;;;;;;;;;;4966202;28;20042;-73
2022/01/23 09:39:02;;;;;;;67.35;23.45;;;;;;;;;;4983408;28;20062;-73
2022/01/23 09:41:29;;;;;;;66.13;25.10;;;;;;;;;;4982556;28;20743;-74
2022/01/23 09:43:55;;;;;;;67.03;24.98;;;;;;;;;;4982556;28;20226;-74
2022/01/23 09:46:23;;;;;;;64.35;24.00;;;;;;;;;;4978933;28;20120;-74
2022/01/23 09:48:49;;;;;;;60.42;22.20;;;;;;;;;;4988863;28;20038;-73
2022/01/23 09:51:15;;;;;;;66.40;23.92;;;;;;;;;;4979925;28;20038;-73
2022/01/23 09:53:42;;;;;;;70.07;24.73;;;;;;;;;;4981273;28;20038;-73
2022/01/23 09:56:09;;;;;;;61.67;22.45;;;;;;;;;;4980360;28;20039;-74
2022/01/23 09:58:38;;;;;;;73.28;25.50;;;;;;;;;;4979554;28;20050;-73
2022/01/23 10:01:03;;;;;;;73.18;25.25;;;;;;;;;;4982523;28;20120;-73
2022/01/23 10:03:29;;;;;;;67.35;23.67;;;;;;;;;;4983190;28;20133;-74
2022/01/23 10:05:56;;;;;;;59.78;24.08;;;;;;;;;;4987595;28;20105;-74
2022/01/23 10:08:23;;;;;;;64.78;22.90;;;;;;;;;;4983412;28;20535;-73
2022/01/23 10:10:53;;;;;;;69.07;23.63;;;;;;;;;;4983442;28;20038;-74
2022/01/23 10:13:21;;;;;;;58.63;22.08;;;;;;;;;;4981945;28;20102;-73
2022/01/23 10:15:47;;;;;;;64.05;21.83;;;;;;;;;;4981709;28;20455;-74
2022/01/23 10:18:12;;;;;;;65.60;23.10;;;;;;;;;;4979751;28;20503;-74
2022/01/23 10:20:37;;;;;;;60.60;21.52;;;;;;;;;;4981027;28;20531;-73
2022/01/23 10:23:03;;;;;;;64.65;22.52;;;;;;;;;;4988949;28;20042;-74
2022/01/23 10:25:31;;;;;;;62.08;21.70;;;;;;;;;;4983197;28;20034;-74
2022/01/23 10:27:57;;;;;;;56.75;21.27;;;;;;;;;;4981948;28;20054;-74
2022/01/23 10:30:25;;;;;;;61.42;23.60;;;;;;;;;;4979404;28;20041;-73
2022/01/23 10:33:03;;;;;;;57.83;22.77;;;;;;;;;;4982429;28;20269;-73
2022/01/23 10:35:30;;;;;;;68.72;24.58;;;;;;;;;;4981509;28;20042;-74
2022/01/23 10:38:03;;;;;;;63.05;24.30;;;;;;;;;;4981392;28;20041;-75
2022/01/23 10:40:32;;;;;;;69.47;24.17;;;;;;;;;;4980870;28;20034;-74
2022/01/23 10:48:25;;;;;;;58.92;21.80;;;;;;;;;;4982146;28;20064;-75
2022/01/23 10:51:11;;;;;;;56.55;21.83;;;;;;;;;;4988575;28;20043;-74
2022/01/23 10:53:59;;;;;;;60.00;21.98;;;;;;;;;;4978996;28;20085;-74
2022/01/23 10:56:30;;;;;;;54.30;20.50;;;;;;;;;;4976741;28;20482;-73
2022/01/23 10:59:18;;;;;;;54.95;20.48;;;;;;;;;;4982433;28;20042;-74
2022/01/23 11:02:03;;;;;;;61.03;21.55;;;;;;;;;;4983118;28;20031;-74
2022/01/23 11:04:29;;;;;;;59.25;20.90;;;;;;;;;;4979271;28;20034;-74
2022/01/23 11:06:55;;;;;;;55.15;20.05;;;;;;;;;;4962090;28;20057;-74
2022/01/23 11:09:27;;;;;;;60.55;21.10;;;;;;;;;;4977699;28;20026;-75
2022/01/23 11:12:00;;;;;;;63.00;21.02;;;;;;;;;;4994832;28;20044;-75
2022/01/23 11:17:22;;;;;;;64.50;25.10;;;;;;;;;;4967554;28;20061;-75
2022/01/23 11:19:49;;;;;;;66.35;23.77;;;;;;;;;;4983331;28;20034;-74
2022/01/23 11:22:20;;;;;;;60.15;24.05;;;;;;;;;;4979623;28;20030;-73
2022/01/23 11:24:48;;;;;;;63.05;22.45;;;;;;;;;;4981600;28;20555;-76
2022/01/23 11:27:21;;;;;;;63.95;22.23;;;;;;;;;;4983699;28;20092;-74
2022/01/23 11:29:55;;;;;;;64.90;21.73;;;;;;;;;;4985088;28;20070;-75
2022/01/23 11:32:22;;;;;;;62.72;22.58;;;;;;;;;;4999154;28;20045;-73
2022/01/23 11:34:48;;;;;;;64.38;21.80;;;;;;;;;;4984618;28;20125;-73
2022/01/23 11:37:17;;;;;;;59.65;21.50;;;;;;;;;;4983152;28;20030;-74
2022/01/23 11:39:49;;;;;;;59.33;21.77;;;;;;;;;;4975895;28;20472;-73
2022/01/23 11:56:24;;;;;;;49.50;17.23;;;;;;;;;;4978312;28;20082;-73
2022/01/23 11:58:53;;;;;;;52.25;18.92;;;;;;;;;;4998583;28;20471;-73
2022/01/23 12:01:24;;;;;;;51.75;19.42;;;;;;;;;;4980827;28;20516;-73
2022/01/23 12:04:16;;;;;;;53.53;20.00;;;;;;;;;;4981294;28;20050;-73
2022/01/23 12:06:42;;;;;;;56.55;20.55;;;;;;;;;;4985203;28;20709;-73
2022/01/23 12:09:11;;;;;;;57.55;20.25;;;;;;;;;;4960491;28;20050;-73
2022/01/23 12:16:21;;;;;;;50.20;18.00;;;;;;;;;;4963539;28;20093;-73
2022/01/23 12:17:00;;;;;;;50.92;19.17;;;;;;;;;;4961836;28;20401;-73
2022/01/23 12:19:28;;;;;;;52.17;19.48;;;;;;;;;;4964805;28;20057;-73
2022/01/23 12:21:55;;;;;;;55.88;17.65;;;;;;;;;;4973225;28;20043;-73
2022/01/23 12:24:24;;;;;;;47.25;18.08;;;;;;;;;;4961063;28;20590;-73
2022/01/23 12:26:52;;;;;;;51.72;17.92;;;;;;;;;;4974374;28;20046;-73
2022/01/23 12:29:23;;;;;;;43.28;16.20;;;;;;;;;;4964731;28;20098;-73
2022/01/23 12:31:50;;;;;;;45.47;16.95;;;;;;;;;;4965061;28;20050;-73
2022/01/23 12:34:16;;;;;;;39.70;14.98;;;;;;;;;;4964179;28;20023;-72
2022/01/23 12:36:52;;;;;;;39.58;14.98;;;;;;;;;;4966858;28;20117;-73
2022/01/23 12:39:19;;;;;;;32.42;12.82;;;;;;;;;;4964746;28;20042;-73
2022/01/23 12:41:50;;;;;;;42.78;14.07;;;;;;;;;;4967027;28;20062;-73
2022/01/23 12:44:26;;;;;;;47.17;15.15;;;;;;;;;;4964062;28;20055;-73
2022/01/23 12:46:57;;;;;;;34.80;14.43;;;;;;;;;;4964764;28;20673;-73
2022/01/23 12:49:29;;;;;;;36.17;14.48;;;;;;;;;;4964575;28;20030;-73
2022/01/23 12:52:09;;;;;;;38.10;14.23;;;;;;;;;;4967927;28;20582;-74
2022/01/23 12:54:47;;;;;;;42.78;14.90;;;;;;;;;;4962432;28;20050;-74
2022/01/23 12:57:15;;;;;;;40.72;15.07;;;;;;;;;;4977263;28;20506;-73
2022/01/23 12:59:43;;;;;;;39.28;13.98;;;;;;;;;;4967480;28;21331;-73
2022/01/23 13:02:14;;;;;;;38.33;13.60;;;;;;;;;;4959150;28;20041;-73
2022/01/23 13:04:45;;;;;;;38.72;13.50;;;;;;;;;;4979478;28;20033;-72
2022/01/23 13:07:19;;;;;;;40.70;14.18;;;;;;;;;;4983338;28;20058;-73
2022/01/23 13:12:36;;;;;;;36.40;13.93;;;;;;;;;;4980899;28;20043;-73
2022/01/23 13:26:31;;;;;;;32.28;11.90;;;;;;;;;;4980944;28;20048;-73
2022/01/23 13:31:44;;;;;;;28.33;10.40;;;;;;;;;;4978808;28;20030;-71
2022/01/23 13:34:24;;;;;;;29.55;10.88;;;;;;;;;;4977153;28;20073;-72
2022/01/23 13:37:10;;;;;;;31.40;10.80;;;;;;;;;;4959769;28;21209;-69
2022/01/23 13:39:48;;;;;;;30.02;11.23;;;;;;;;;;4993915;28;20065;-70
2022/01/23 13:53:11;;;;;;;28.77;10.30;;;;;;;;;;4978629;28;20123;-72
2022/01/23 14:00:57;;;;;;;28.27;10.43;;;;;;;;;;4979590;28;20087;-72
2022/01/23 14:03:23;;;;;;;29.40;10.90;;;;;;;;;;4978747;28;20070;-72
2022/01/23 14:05:48;;;;;;;26.65;10.18;;;;;;;;;;4981785;28;20566;-71
2022/01/23 14:08:13;;;;;;;21.17;8.77;;;;;;;;;;4983870;28;20039;-72
2022/01/23 14:10:39;;;;;;;25.08;9.32;;;;;;;;;;4985895;28;20032;-72
2022/01/23 14:13:15;;;;;;;20.13;8.50;;;;;;;;;;4987337;28;20092;-72
2022/01/23 14:15:49;;;;;;;27.25;9.65;;;;;;;;;;4982492;28;20034;-72
2022/01/23 14:18:22;;;;;;;26.08;10.60;;;;;;;;;;4981611;28;20074;-70
2022/01/23 14:21:09;;;;;;;23.33;8.82;;;;;;;;;;4981873;28;20053;-72
2022/01/23 14:23:36;;;;;;;25.92;10.38;;;;;;;;;;4973036;28;20162;-72
2022/01/23 14:26:15;;;;;;;27.88;11.10;;;;;;;;;;4985476;28;20042;-72
2022/01/23 14:28:47;;;;;;;25.75;11.00;;;;;;;;;;4982770;28;20408;-71
2022/01/23 14:31:19;;;;;;;23.92;9.85;;;;;;;;;;4989540;28;20056;-72
2022/01/23 14:33:49;;;;;;;26.23;10.20;;;;;;;;;;4991300;28;20050;-72
2022/01/23 14:36:17;;;;;;;25.30;10.05;;;;;;;;;;4979099;28;20556;-72
2022/01/23 14:38:59;;;;;;;26.27;9.77;;;;;;;;;;4982013;28;20046;-72
2022/01/23 14:41:27;;;;;;;26.92;10.43;;;;;;;;;;4976277;28;20100;-72
2022/01/23 14:43:53;;;;;;;26.58;9.68;;;;;;;;;;4980692;28;20036;-72
2022/01/23 14:46:18;;;;;;;26.98;10.27;;;;;;;;;;4980992;28;20030;-72
2022/01/23 14:48:48;;;;;;;28.55;10.23;;;;;;;;;;4966839;28;20056;-72
2022/01/23 14:51:20;;;;;;;22.80;8.60;;;;;;;;;;4979179;28;20050;-71
2022/01/23 14:53:46;;;;;;;23.25;9.48;;;;;;;;;;4977062;28;20857;-71
2022/01/23 14:56:13;;;;;;;24.15;9.73;;;;;;;;;;4983008;28;20043;-71
2022/01/23 14:58:39;;;;;;;23.85;9.25;;;;;;;;;;4981454;28;20034;-72
2022/01/23 15:01:10;;;;;;;24.10;9.35;;;;;;;;;;4980308;28;20241;-72
2022/01/23 15:03:36;;;;;;;24.17;10.05;;;;;;;;;;4983150;28;20419;-71
2022/01/23 15:06:02;;;;;;;28.15;10.68;;;;;;;;;;4979567;28;20050;-71
2022/01/23 15:08:28;;;;;;;29.95;11.50;;;;;;;;;;4983682;28;20042;-71
2022/01/23 15:10:56;;;;;;;35.67;11.85;;;;;;;;;;4982441;28;20129;-71
2022/01/23 15:13:25;;;;;;;33.80;11.95;;;;;;;;;;4979505;28;20045;-71
2022/01/23 15:15:52;;;;;;;28.60;9.52;;;;;;;;;;4985720;28;20095;-71
2022/01/23 15:18:18;;;;;;;28.85;10.50;;;;;;;;;;5001017;28;20033;-72
2022/01/23 15:20:44;;;;;;;29.75;10.50;;;;;;;;;;4991127;28;20665;-71
2022/01/23 15:23:10;;;;;;;28.20;10.38;;;;;;;;;;5001135;28;20053;-71
2022/01/23 15:25:36;;;;;;;25.65;9.68;;;;;;;;;;5000473;28;20469;-71
2022/01/23 15:28:02;;;;;;;28.40;10.23;;;;;;;;;;5000191;28;20038;-72
2022/01/23 15:30:28;;;;;;;23.77;9.40;;;;;;;;;;4981926;28;20068;-71
2022/01/23 15:32:54;;;;;;;28.42;10.20;;;;;;;;;;5002154;28;20045;-71
2022/01/23 15:35:23;;;;;;;25.48;9.50;;;;;;;;;;4999991;28;20653;-71
2022/01/23 15:37:48;;;;;;;28.92;10.07;;;;;;;;;;5001957;28;20050;-72
2022/01/23 15:40:15;;;;;;;28.88;10.98;;;;;;;;;;5000225;28;20046;-72
2022/01/23 15:42:42;;;;;;;30.33;11.90;;;;;;;;;;5000142;28;20084;-71
2022/01/23 15:45:08;;;;;;;30.15;12.07;;;;;;;;;;5002260;28;20109;-72
2022/01/23 15:47:34;;;;;;;34.38;12.07;;;;;;;;;;4998146;28;20034;-72
2022/01/23 15:49:59;;;;;;;27.85;10.85;;;;;;;;;;4999041;28;20407;-71
2022/01/23 15:52:25;;;;;;;31.38;11.60;;;;;;;;;;4999946;28;20045;-71
2022/01/23 15:54:50;;;;;;;27.35;11.18;;;;;;;;;;4998848;28;20129;-71
2022/01/23 15:57:17;;;;;;;26.27;10.82;;;;;;;;;;4986829;28;20099;-71
2022/01/23 15:59:42;;;;;;;32.13;11.73;;;;;;;;;;4981623;28;20045;-70
2022/01/23 16:02:08;;;;;;;30.67;12.88;;;;;;;;;;4999278;28;20037;-72
2022/01/23 16:04:37;;;;;;;30.42;12.85;;;;;;;;;;4986156;28;20519;-72
2022/01/23 16:07:04;;;;;;;32.13;13.63;;;;;;;;;;5002515;28;20048;-71
2022/01/23 16:09:30;;;;;;;33.92;12.75;;;;;;;;;;5005411;28;20026;-72
2022/01/23 16:11:55;;;;;;;37.65;14.57;;;;;;;;;;5003572;28;20057;-72
2022/01/23 16:14:20;;;;;;;44.45;16.50;;;;;;;;;;4985704;28;20037;-72
2022/01/23 16:16:47;;;;;;;48.22;18.17;;;;;;;;;;5004104;28;20519;-71
2022/01/23 16:19:12;;;;;;;36.80;15.23;;;;;;;;;;4997850;28;20034;-71
2022/01/23 16:21:38;;;;;;;35.47;14.60;;;;;;;;;;4996556;28;20048;-71
2022/01/23 16:24:04;;;;;;;38.97;16.23;;;;;;;;;;5005728;28;20029;-72
2022/01/23 16:26:29;;;;;;;38.40;15.80;;;;;;;;;;5001585;28;20448;-72
2022/01/23 16:28:55;;;;;;;41.85;14.80;;;;;;;;;;4998104;28;20814;-71
2022/01/23 16:31:20;;;;;;;39.13;15.32;;;;;;;;;;5002042;28;20057;-69
2022/01/23 16:33:47;;;;;;;43.10;18.30;;;;;;;;;;5000879;28;20041;-71
2022/01/23 16:36:13;;;;;;;42.40;17.42;;;;;;;;;;5004235;28;20030;-72
2022/01/23 16:38:39;;;;;;;35.83;13.90;;;;;;;;;;4987293;28;20092;-71
2022/01/23 16:41:09;;;;;;;37.03;14.38;;;;;;;;;;5001182;28;20642;-72
2022/01/23 16:43:36;;;;;;;34.83;13.80;;;;;;;;;;5003199;28;20058;-71
2022/01/23 16:46:03;;;;;;;30.50;12.80;;;;;;;;;;5003574;28;20048;-72
2022/01/23 16:48:29;;;;;;;33.95;14.43;;;;;;;;;;5003168;28;20350;-71
2022/01/23 16:50:57;;;;;;;33.92;13.68;;;;;;;;;;5008631;28;20551;-72
2022/01/23 16:53:24;;;;;;;39.30;15.90;;;;;;;;;;5004112;28;20064;-72
2022/01/23 16:55:56;;;;;;;38.03;14.90;;;;;;;;;;4995562;28;20046;-72
2022/01/23 16:58:22;;;;;;;34.45;15.30;;;;;;;;;;4984803;28;20046;-69
2022/01/23 17:00:47;;;;;;;33.67;14.85;;;;;;;;;;5002687;28;20042;-72
2022/01/23 17:03:12;;;;;;;33.97;14.13;;;;;;;;;;5002311;28;20073;-72
2022/01/23 17:05:42;;;;;;;38.75;15.13;;;;;;;;;;5001703;28;20053;-71
2022/01/23 17:08:08;;;;;;;31.00;11.93;;;;;;;;;;5002821;28;20029;-71
2022/01/23 17:10:33;;;;;;;37.80;15.32;;;;;;;;;;4998130;28;20660;-72
2022/01/23 17:12:58;;;;;;;42.50;16.92;;;;;;;;;;4999200;28;20137;-71
2022/01/23 17:15:24;;;;;;;38.17;15.15;;;;;;;;;;5001070;28;20048;-71
2022/01/23 17:17:50;;;;;;;44.08;16.08;;;;;;;;;;5001019;28;20845;-71
2022/01/23 17:20:20;;;;;;;43.13;16.80;;;;;;;;;;5000639;28;20023;-71
2022/01/23 17:22:46;;;;;;;40.10;15.55;;;;;;;;;;4999101;28;20120;-71
2022/01/23 17:25:11;;;;;;;37.95;14.07;;;;;;;;;;4998512;28;20081;-71
2022/01/23 17:27:37;;;;;;;37.35;15.50;;;;;;;;;;4985492;28;20472;-71
2022/01/23 17:30:04;;;;;;;33.00;13.85;;;;;;;;;;5002938;28;20054;-71
2022/01/23 17:32:29;;;;;;;35.05;15.00;;;;;;;;;;5003000;28;20700;-68
2022/01/23 17:34:54;;;;;;;41.22;15.68;;;;;;;;;;5001216;28;20057;-71
2022/01/23 17:37:20;;;;;;;34.65;13.93;;;;;;;;;;5003844;28;20077;-71
2022/01/23 17:39:45;;;;;;;33.22;13.20;;;;;;;;;;5000595;28;20088;-71
2022/01/23 17:42:11;;;;;;;38.33;15.00;;;;;;;;;;5001511;28;20046;-71
2022/01/23 17:44:40;;;;;;;36.65;14.13;;;;;;;;;;5004548;28;20072;-71
2022/01/23 17:47:19;;;;;;;35.65;14.50;;;;;;;;;;5000759;28;20033;-71
2022/01/23 17:49:57;;;;;;;32.88;14.07;;;;;;;;;;5000660;28;20057;-72
2022/01/23 17:52:24;;;;;;;37.83;16.02;;;;;;;;;;4984014;28;20133;-72